Time;durP1;ratioP1;P1;durP2;ratioP2;P2;SDS_P1;SDS_P2;PMS_P1;PMS_P2;Temp;Humidity;BMP_temperature;BMP_pressure;BME280_temperature;BME280_humidity;BME280_pressure;Samples;Min_cycle;Max_cycle;Signal;HPM_P1;HPM_P2
2022/11/25 00:00:32;;;;;;;22.35;4.57;;;8.70;99.90;;;;;;4861018;29;20065;-63
2022/11/25 00:02:59;;;;;;;29.35;5.28;;;8.70;99.90;;;;;;4861021;29;20053;-63
2022/11/25 00:05:27;;;;;;;27.92;4.68;;;8.70;99.90;;;;;;4861004;29;20053;-63
2022/11/25 00:07:54;;;;;;;25.77;5.10;;;8.60;99.90;;;;;;4860754;29;20076;-63
2022/11/25 00:10:20;;;;;;;31.38;5.03;;;8.60;99.90;;;;;;4860864;29;20045;-63
2022/11/25 00:12:47;;;;;;;31.98;5.18;;;8.60;99.90;;;;;;4861148;29;20069;-63
2022/11/25 00:15:14;;;;;;;23.08;4.13;;;8.60;99.90;;;;;;4861109;29;20056;-63
2022/11/25 00:17:40;;;;;;;25.73;4.22;;;8.60;99.90;;;;;;4861278;29;20392;-63
2022/11/25 00:20:07;;;;;;;26.30;4.32;;;8.60;99.90;;;;;;4861433;29;20054;-64
2022/11/25 00:22:34;;;;;;;26.70;5.07;;;8.60;99.90;;;;;;4860621;29;20041;-63
2022/11/25 00:25:00;;;;;;;34.22;4.60;;;8.70;99.90;;;;;;4860717;29;20053;-63
2022/11/25 00:27:27;;;;;;;22.35;5.05;;;8.60;99.90;;;;;;4861235;29;20073;-63
2022/11/25 00:29:54;;;;;;;28.70;3.80;;;8.60;99.90;;;;;;4859727;29;20049;-63
2022/11/25 00:32:21;;;;;;;27.58;4.15;;;8.60;99.90;;;;;;4861350;29;20045;-63
2022/11/25 00:34:47;;;;;;;27.38;5.13;;;8.60;99.90;;;;;;4860825;29;20084;-63
2022/11/25 00:37:14;;;;;;;22.05;4.13;;;8.60;99.90;;;;;;4860118;29;20049;-63
2022/11/25 00:39:41;;;;;;;23.33;4.07;;;8.70;99.90;;;;;;4844398;29;20430;-63
2022/11/25 00:44:53;;;;;;;20.15;3.78;;;8.70;99.90;;;;;;4862920;29;20053;-63
2022/11/25 00:47:20;;;;;;;26.00;4.60;;;8.70;99.90;;;;;;4863977;29;20045;-63
2022/11/25 00:49:47;;;;;;;31.17;4.90;;;8.60;99.90;;;;;;4862865;29;20046;-63
2022/11/25 00:52:14;;;;;;;26.27;4.10;;;8.70;99.90;;;;;;4862896;29;20478;-63
2022/11/25 00:54:41;;;;;;;27.05;5.00;;;8.70;99.90;;;;;;4863988;29;20049;-62
2022/11/25 00:57:07;;;;;;;26.95;4.65;;;8.70;99.90;;;;;;4862987;29;20060;-63
2022/11/25 00:59:34;;;;;;;28.48;5.55;;;8.70;99.90;;;;;;4864411;29;20053;-63
2022/11/25 01:02:01;;;;;;;25.30;4.18;;;8.70;99.90;;;;;;4863221;29;20056;-63
2022/11/25 01:04:27;;;;;;;25.33;4.85;;;8.70;99.90;;;;;;4863869;29;20577;-64
2022/11/25 01:06:55;;;;;;;22.95;4.10;;;8.70;99.90;;;;;;4863698;29;20064;-63
2022/11/25 01:09:22;;;;;;;25.73;4.55;;;8.70;99.90;;;;;;4863712;29;20124;-63
2022/11/25 01:11:49;;;;;;;30.17;5.32;;;8.70;99.90;;;;;;4862967;29;20050;-63
2022/11/25 01:14:16;;;;;;;27.05;4.13;;;8.70;99.90;;;;;;4862801;29;20054;-63
2022/11/25 01:16:45;;;;;;;31.23;4.38;;;8.70;99.90;;;;;;4864071;29;20041;-63
2022/11/25 01:19:12;;;;;;;28.92;4.28;;;8.70;99.90;;;;;;4863816;29;20477;-62
2022/11/25 01:21:38;;;;;;;26.98;4.10;;;8.70;99.90;;;;;;4862737;29;20054;-63
2022/11/25 01:24:05;;;;;;;24.52;4.18;;;8.70;99.90;;;;;;4862214;29;20096;-63
2022/11/25 01:26:32;;;;;;;28.25;5.47;;;8.70;99.90;;;;;;4862452;29;20049;-62
2022/11/25 01:28:59;;;;;;;26.23;3.78;;;8.70;99.90;;;;;;4863441;29;20049;-63
2022/11/25 01:31:26;;;;;;;20.52;3.78;;;8.70;99.90;;;;;;4863488;29;20098;-63
2022/11/25 01:33:53;;;;;;;22.92;3.90;;;8.70;99.90;;;;;;4863545;29;20053;-64
2022/11/25 01:36:19;;;;;;;24.33;4.28;;;8.70;99.90;;;;;;4861962;29;20139;-62
2022/11/25 01:38:46;;;;;;;27.65;4.47;;;8.70;99.90;;;;;;4862091;29;20050;-63
2022/11/25 01:41:13;;;;;;;26.45;4.20;;;8.70;99.90;;;;;;4863221;29;20076;-63
2022/11/25 01:43:39;;;;;;;28.25;4.00;;;8.70;99.90;;;;;;4861824;29;20045;-63
2022/11/25 01:46:06;;;;;;;24.48;4.40;;;8.70;99.90;;;;;;4863161;29;20128;-63
2022/11/25 01:48:33;;;;;;;27.63;4.43;;;8.60;99.90;;;;;;4861298;29;20115;-63
2022/11/25 01:51:00;;;;;;;25.13;4.18;;;8.60;99.90;;;;;;4860576;29;20033;-63
2022/11/25 01:53:26;;;;;;;26.70;4.00;;;8.60;99.90;;;;;;4863366;29;20057;-63
2022/11/25 01:55:56;;;;;;;29.45;4.20;;;8.70;99.90;;;;;;4862142;29;20492;-63
2022/11/25 01:58:22;;;;;;;21.83;4.85;;;8.60;99.90;;;;;;4862277;29;20151;-63
2022/11/25 02:00:52;;;;;;;23.33;4.40;;;8.60;99.90;;;;;;4861727;29;20076;-63
2022/11/25 02:03:19;;;;;;;25.83;4.63;;;8.60;99.90;;;;;;4862971;29;20374;-63
2022/11/25 02:05:46;;;;;;;28.85;4.57;;;8.60;99.90;;;;;;4861377;29;20045;-63
2022/11/25 02:08:13;;;;;;;22.42;4.55;;;8.60;99.90;;;;;;4862614;29;20061;-63
2022/11/25 02:10:39;;;;;;;25.13;4.10;;;8.60;99.90;;;;;;4861586;29;20049;-64
2022/11/25 02:13:06;;;;;;;22.85;4.13;;;8.60;99.90;;;;;;4862931;29;20044;-63
2022/11/25 02:15:35;;;;;;;24.50;4.43;;;8.60;99.90;;;;;;4862701;29;20363;-63
2022/11/25 02:18:02;;;;;;;28.80;4.35;;;8.60;99.90;;;;;;4861497;29;20046;-63
2022/11/25 02:20:29;;;;;;;23.33;4.60;;;8.60;99.90;;;;;;4862041;29;20054;-63
2022/11/25 02:22:56;;;;;;;30.02;4.43;;;8.50;99.90;;;;;;4862384;29;20072;-64
2022/11/25 02:25:23;;;;;;;26.73;4.65;;;8.50;99.90;;;;;;4861318;29;20111;-63
2022/11/25 02:27:50;;;;;;;30.30;4.32;;;8.50;99.90;;;;;;4861124;29;20069;-63
2022/11/25 02:30:17;;;;;;;30.77;4.95;;;8.50;99.90;;;;;;4862508;29;20045;-63
2022/11/25 02:32:44;;;;;;;24.67;4.20;;;8.50;99.90;;;;;;4861471;29;20053;-63
2022/11/25 02:35:11;;;;;;;28.70;4.63;;;8.50;99.90;;;;;;4861372;29;20057;-62
2022/11/25 02:37:38;;;;;;;24.05;4.18;;;8.50;99.90;;;;;;4861124;29;20045;-63
2022/11/25 02:40:05;;;;;;;25.92;4.38;;;8.50;99.90;;;;;;4861689;29;20098;-62
2022/11/25 02:42:32;;;;;;;26.80;4.10;;;8.50;99.90;;;;;;4860897;29;20054;-63
2022/11/25 02:44:59;;;;;;;21.02;3.80;;;8.50;99.90;;;;;;4860648;29;20045;-63
2022/11/25 02:47:26;;;;;;;22.77;4.60;;;8.50;99.90;;;;;;4861041;29;20078;-63
2022/11/25 02:49:53;;;;;;;22.92;4.60;;;8.50;99.90;;;;;;4860757;29;20076;-63
2022/11/25 02:52:20;;;;;;;23.52;3.75;;;8.50;99.90;;;;;;4860671;29;20074;-63
2022/11/25 02:54:48;;;;;;;26.27;4.22;;;8.50;99.90;;;;;;4862064;29;20074;-63
2022/11/25 02:57:15;;;;;;;22.75;3.72;;;8.40;99.90;;;;;;4860628;29;20060;-63
2022/11/25 02:59:41;;;;;;;25.10;5.18;;;8.50;99.90;;;;;;4860561;29;20058;-63
2022/11/25 03:02:09;;;;;;;30.38;5.15;;;8.40;99.90;;;;;;4860693;29;20052;-63
2022/11/25 03:04:35;;;;;;;30.77;4.22;;;8.40;99.90;;;;;;4862017;29;20037;-64
2022/11/25 03:07:03;;;;;;;20.75;4.43;;;8.40;99.90;;;;;;4860861;29;20113;-62
2022/11/25 03:09:29;;;;;;;23.67;4.20;;;8.40;99.90;;;;;;4862031;29;20124;-63
2022/11/25 03:14:42;;;;;;;25.77;4.60;;;8.40;99.90;;;;;;4860376;29;20512;-63
2022/11/25 03:17:10;;;;;;;27.48;4.13;;;8.40;99.90;;;;;;4860766;29;20048;-63
2022/11/25 03:19:37;;;;;;;21.70;4.20;;;8.30;99.90;;;;;;4860504;29;20525;-63
2022/11/25 03:22:04;;;;;;;22.67;4.50;;;8.30;99.90;;;;;;4860359;29;20041;-62
2022/11/25 03:24:31;;;;;;;30.63;4.43;;;8.30;99.90;;;;;;4859912;29;20053;-62
2022/11/25 03:26:58;;;;;;;31.63;5.65;;;8.30;99.90;;;;;;4860613;29;20045;-64
2022/11/25 03:29:24;;;;;;;29.63;5.18;;;8.30;99.90;;;;;;4860791;29;20065;-63
2022/11/25 03:31:51;;;;;;;23.90;4.13;;;8.30;99.90;;;;;;4860808;29;20072;-63
2022/11/25 03:34:19;;;;;;;28.05;4.15;;;8.30;99.90;;;;;;4860573;29;20075;-63
2022/11/25 03:36:46;;;;;;;30.73;4.88;;;8.30;99.90;;;;;;4859980;29;20141;-63
2022/11/25 03:39:13;;;;;;;27.65;5.38;;;8.30;99.90;;;;;;4861494;29;20046;-62
2022/11/25 03:41:40;;;;;;;30.20;4.78;;;8.30;99.90;;;;;;4860594;29;20055;-63
2022/11/25 03:44:07;;;;;;;30.98;4.20;;;8.30;99.90;;;;;;4860031;29;20132;-63
2022/11/25 03:46:35;;;;;;;25.73;4.50;;;8.30;99.90;;;;;;4860439;29;20445;-62
2022/11/25 03:49:04;;;;;;;30.17;5.28;;;8.20;99.90;;;;;;4860364;29;20050;-62
2022/11/25 03:51:31;;;;;;;22.45;3.90;;;8.30;99.90;;;;;;4860050;29;20098;-63
2022/11/25 03:53:58;;;;;;;28.10;4.75;;;8.30;99.90;;;;;;4861621;29;20061;-62
2022/11/25 03:56:25;;;;;;;26.85;4.90;;;8.30;99.90;;;;;;4859839;29;20497;-62
2022/11/25 03:58:52;;;;;;;25.33;4.40;;;8.30;99.90;;;;;;4860280;29;20489;-62
2022/11/25 04:01:21;;;;;;;22.80;3.95;;;8.30;99.90;;;;;;4859943;29;20568;-63
2022/11/25 04:03:47;;;;;;;26.60;4.00;;;8.30;99.90;;;;;;4859692;29;20081;-62
2022/11/25 04:06:15;;;;;;;23.05;3.97;;;8.20;99.90;;;;;;4861095;29;20454;-63
2022/11/25 04:08:41;;;;;;;26.58;4.45;;;8.20;99.90;;;;;;4859780;29;20101;-62
2022/11/25 04:11:09;;;;;;;24.48;4.22;;;8.20;99.90;;;;;;4859603;29;20512;-62
2022/11/25 04:13:40;;;;;;;24.27;3.90;;;8.20;99.90;;;;;;4859689;29;20132;-63
2022/11/25 04:16:07;;;;;;;23.92;4.03;;;8.20;99.90;;;;;;4859581;29;20057;-63
2022/11/25 04:18:34;;;;;;;24.02;4.40;;;8.20;99.90;;;;;;4859700;29;20048;-63
2022/11/25 04:21:01;;;;;;;26.65;3.83;;;8.20;99.90;;;;;;4863297;29;20140;-63
2022/11/25 04:23:28;;;;;;;33.45;5.43;;;8.10;99.90;;;;;;4860546;29;20083;-64
2022/11/25 04:26:00;;;;;;;24.80;3.97;;;8.20;99.90;;;;;;4845098;29;20064;-63
2022/11/25 04:28:33;;;;;;;22.42;4.53;;;8.10;99.90;;;;;;4844922;29;20074;-63
2022/11/25 04:31:00;;;;;;;23.77;4.20;;;8.10;99.90;;;;;;4845083;29;20494;-63
2022/11/25 04:33:27;;;;;;;27.85;4.82;;;8.10;99.90;;;;;;4845011;29;20489;-63
2022/11/25 04:35:53;;;;;;;33.92;5.68;;;8.10;99.90;;;;;;4846279;29;20076;-62
2022/11/25 04:38:20;;;;;;;25.42;4.07;;;8.10;99.90;;;;;;4845250;29;20078;-63
2022/11/25 04:40:48;;;;;;;27.65;4.18;;;8.10;99.90;;;;;;4845274;29;20061;-63
2022/11/25 04:43:18;;;;;;;23.60;4.82;;;8.10;99.90;;;;;;4845146;29;20057;-63
2022/11/25 04:45:49;;;;;;;24.90;3.88;;;8.10;99.90;;;;;;4844807;29;20050;-63
2022/11/25 04:48:37;;;;;;;27.02;4.70;;;8.10;99.90;;;;;;4844859;29;20493;-63
2022/11/25 04:51:04;;;;;;;16.77;3.42;;;8.10;99.90;;;;;;4844973;29;20046;-63
2022/11/25 04:53:31;;;;;;;21.92;4.00;;;8.10;99.90;;;;;;4844890;29;20042;-62
2022/11/25 04:55:58;;;;;;;25.70;4.72;;;8.10;99.90;;;;;;4845694;29;20054;-63
2022/11/25 05:01:11;;;;;;;25.80;4.95;;;8.10;99.90;;;;;;4844354;29;20045;-63
2022/11/25 05:03:43;;;;;;;23.88;3.70;;;8.10;99.90;;;;;;4844724;29;20058;-63
2022/11/25 05:06:18;;;;;;;22.40;3.55;;;8.10;99.90;;;;;;4844053;29;20050;-63
2022/11/25 05:08:46;;;;;;;22.60;4.10;;;8.10;99.90;;;;;;4844111;29;20413;-64
2022/11/25 05:11:12;;;;;;;21.77;3.30;;;8.00;99.90;;;;;;4845581;29;20038;-63
2022/11/25 05:13:39;;;;;;;21.33;4.32;;;8.00;99.90;;;;;;4844372;29;20489;-63
2022/11/25 05:16:06;;;;;;;28.67;5.00;;;8.00;99.90;;;;;;4844424;29;20049;-63
2022/11/25 05:18:34;;;;;;;22.05;3.42;;;8.00;99.90;;;;;;4844448;29;20050;-64
2022/11/25 05:21:01;;;;;;;25.75;4.63;;;8.00;99.90;;;;;;4843957;29;20070;-63
2022/11/25 05:23:30;;;;;;;24.52;3.78;;;8.00;99.90;;;;;;4844353;29;20069;-63
2022/11/25 05:25:58;;;;;;;22.40;4.03;;;8.00;99.90;;;;;;4844038;29;20084;-63
2022/11/25 05:28:29;;;;;;;17.40;3.70;;;8.00;99.90;;;;;;4844372;29;20084;-62
2022/11/25 05:30:56;;;;;;;22.88;4.85;;;8.00;99.90;;;;;;4827515;29;20042;-63
2022/11/25 05:33:24;;;;;;;21.33;3.45;;;8.00;99.90;;;;;;4843640;29;20042;-63
2022/11/25 05:35:51;;;;;;;27.48;5.40;;;8.00;99.90;;;;;;4843600;29;20122;-62
2022/11/25 05:38:18;;;;;;;25.25;3.85;;;8.00;99.90;;;;;;4843833;29;20058;-63
2022/11/25 05:40:45;;;;;;;18.35;3.97;;;8.00;99.90;;;;;;4844907;29;20069;-63
2022/11/25 05:43:14;;;;;;;24.77;4.30;;;8.00;99.90;;;;;;4844754;29;20405;-62
2022/11/25 05:45:41;;;;;;;21.48;4.78;;;7.90;99.90;;;;;;4843572;29;20079;-63
2022/11/25 05:48:10;;;;;;;26.65;4.72;;;7.90;99.90;;;;;;4843281;29;20061;-64
2022/11/25 05:50:37;;;;;;;28.85;4.38;;;7.90;99.90;;;;;;4843378;29;20074;-63
2022/11/25 05:53:30;;;;;;;22.40;4.32;;;7.90;99.90;;;;;;4844332;29;20058;-63
2022/11/25 05:55:57;;;;;;;20.85;3.63;;;7.90;99.90;;;;;;4843477;29;20050;-62
2022/11/25 05:58:49;;;;;;;17.80;3.42;;;7.90;99.90;;;;;;4843820;29;20050;-63
2022/11/25 06:01:16;;;;;;;23.60;3.28;;;7.90;99.90;;;;;;4843405;29;20137;-63
2022/11/25 06:03:44;;;;;;;26.70;4.28;;;7.90;99.90;;;;;;4843059;29;20066;-63
2022/11/25 06:06:13;;;;;;;21.02;3.90;;;7.90;99.90;;;;;;4843108;29;20084;-63
2022/11/25 06:08:41;;;;;;;18.60;3.53;;;7.90;99.90;;;;;;4844586;29;20038;-63
2022/11/25 06:11:07;;;;;;;21.65;4.50;;;7.90;99.90;;;;;;4844546;29;20050;-63
2022/11/25 06:13:35;;;;;;;24.35;3.70;;;7.90;99.90;;;;;;4843382;29;20046;-63
2022/11/25 06:16:02;;;;;;;22.98;3.53;;;7.90;99.90;;;;;;4844203;29;20494;-63
2022/11/25 06:18:33;;;;;;;20.83;4.00;;;7.80;99.90;;;;;;4843344;29;20473;-63
2022/11/25 06:21:01;;;;;;;17.77;3.70;;;7.80;99.90;;;;;;4842938;29;20521;-63
2022/11/25 06:23:28;;;;;;;25.20;3.55;;;7.80;99.90;;;;;;4844053;29;20058;-63
2022/11/25 06:25:55;;;;;;;19.52;3.33;;;7.80;99.90;;;;;;4861272;29;20068;-62
2022/11/25 06:28:23;;;;;;;17.27;3.08;;;7.80;99.90;;;;;;4861349;29;20045;-63
2022/11/25 06:30:50;;;;;;;20.48;3.78;;;7.80;99.90;;;;;;4861301;29;20394;-63
2022/11/25 06:33:24;;;;;;;16.77;3.58;;;7.70;99.90;;;;;;4861730;29;20136;-63
2022/11/25 06:35:53;;;;;;;18.83;3.42;;;7.70;99.90;;;;;;4861252;29;20045;-63
2022/11/25 06:38:19;;;;;;;18.88;3.38;;;7.70;99.90;;;;;;4862329;29;20416;-62
2022/11/25 06:40:46;;;;;;;20.42;3.05;;;7.70;99.90;;;;;;4862238;29;20124;-63
2022/11/25 06:43:13;;;;;;;21.30;3.80;;;7.60;99.90;;;;;;4861771;29;20046;-63
2022/11/25 06:45:40;;;;;;;16.75;3.20;;;7.60;99.90;;;;;;4861980;29;20121;-65
2022/11/25 06:48:06;;;;;;;18.23;2.90;;;7.60;99.90;;;;;;4862241;29;20054;-62
2022/11/25 06:50:33;;;;;;;24.33;3.60;;;7.60;99.90;;;;;;4862302;29;20057;-62
2022/11/25 06:53:00;;;;;;;24.67;4.13;;;7.60;99.90;;;;;;4862142;29;20052;-63
2022/11/25 06:55:27;;;;;;;24.48;4.20;;;7.60;99.90;;;;;;4861744;29;20101;-62
2022/11/25 06:57:53;;;;;;;23.08;3.75;;;7.60;99.90;;;;;;4862059;29;20068;-63
2022/11/25 07:00:40;;;;;;;17.98;4.35;;;7.60;99.90;;;;;;4861727;29;20053;-63
2022/11/25 07:03:07;;;;;;;26.15;3.85;;;7.60;99.90;;;;;;4861724;29;20046;-63
2022/11/25 07:05:33;;;;;;;19.58;3.58;;;7.60;99.90;;;;;;4861860;29;20045;-63
2022/11/25 07:08:00;;;;;;;23.73;3.67;;;7.60;99.90;;;;;;4862039;29;20128;-63
2022/11/25 07:10:27;;;;;;;21.08;3.55;;;7.60;99.90;;;;;;4861812;29;20097;-63
2022/11/25 07:12:53;;;;;;;20.83;3.95;;;7.60;99.90;;;;;;4861684;29;20069;-63
2022/11/25 07:15:20;;;;;;;14.10;3.38;;;7.70;99.90;;;;;;4861935;29;20505;-63
2022/11/25 07:17:47;;;;;;;19.17;3.47;;;7.70;99.90;;;;;;4861992;29;20057;-64
2022/11/25 07:20:14;;;;;;;25.27;3.60;;;7.70;99.90;;;;;;4861760;29;20500;-62
2022/11/25 07:22:40;;;;;;;22.40;3.90;;;7.70;99.90;;;;;;4861638;29;20488;-63
2022/11/25 07:25:08;;;;;;;19.73;3.08;;;7.70;99.90;;;;;;4861357;29;20081;-62
2022/11/25 07:27:35;;;;;;;19.33;3.03;;;7.70;99.90;;;;;;4860319;29;20431;-63
2022/11/25 07:30:01;;;;;;;20.33;3.20;;;7.70;99.90;;;;;;4861523;29;20054;-63
2022/11/25 07:32:48;;;;;;;16.30;3.47;;;7.70;99.90;;;;;;4861686;29;20041;-64
2022/11/25 07:35:15;;;;;;;18.85;2.97;;;7.70;99.90;;;;;;4859947;29;20041;-63
2022/11/25 07:37:42;;;;;;;22.30;3.42;;;7.70;99.90;;;;;;4861388;29;20045;-63
2022/11/25 07:40:09;;;;;;;24.20;3.47;;;7.70;99.90;;;;;;4847945;29;20053;-63
2022/11/25 07:42:35;;;;;;;16.48;3.08;;;7.70;99.90;;;;;;4843251;29;20045;-63
2022/11/25 07:45:03;;;;;;;17.83;3.13;;;7.70;99.90;;;;;;4841304;29;20046;-63
2022/11/25 07:47:39;;;;;;;17.35;3.17;;;7.70;99.90;;;;;;4841679;29;20042;-63
2022/11/25 07:50:06;;;;;;;22.60;3.17;;;7.70;99.90;;;;;;4842753;29;20046;-64
2022/11/25 07:52:32;;;;;;;17.73;2.90;;;7.60;99.90;;;;;;4843255;29;20074;-63
2022/11/25 07:54:59;;;;;;;16.80;3.40;;;7.60;99.90;;;;;;4844530;29;20558;-64
2022/11/25 07:57:26;;;;;;;25.50;4.00;;;7.60;99.90;;;;;;4846558;29;20121;-64
2022/11/25 07:59:52;;;;;;;18.73;3.55;;;7.60;99.90;;;;;;4846719;29;20082;-65
2022/11/25 08:02:19;;;;;;;18.63;2.78;;;7.60;99.90;;;;;;4846623;29;20208;-65
2022/11/25 08:04:46;;;;;;;22.63;4.07;;;7.60;99.90;;;;;;4846725;29;20124;-64
2022/11/25 08:07:13;;;;;;;15.18;3.35;;;7.60;99.90;;;;;;4845155;29;20056;-65
2022/11/25 08:09:39;;;;;;;14.80;2.90;;;7.60;99.90;;;;;;4846243;29;20483;-65
2022/11/25 08:12:06;;;;;;;20.70;3.45;;;7.60;99.90;;;;;;4846322;29;20089;-64
2022/11/25 08:14:34;;;;;;;18.73;3.47;;;7.60;99.90;;;;;;4846855;29;20050;-64
2022/11/25 08:17:03;;;;;;;24.30;3.80;;;7.60;99.90;;;;;;4846249;29;20050;-66
2022/11/25 08:19:31;;;;;;;15.63;2.78;;;7.60;99.90;;;;;;4846410;29;20126;-64
2022/11/25 08:21:57;;;;;;;16.10;3.20;;;7.60;99.90;;;;;;4846688;29;20058;-64
2022/11/25 08:24:24;;;;;;;18.80;3.30;;;7.60;99.90;;;;;;4846062;29;20062;-65
2022/11/25 08:26:53;;;;;;;19.95;3.50;;;7.60;99.90;;;;;;4846287;29;20106;-64
2022/11/25 08:29:19;;;;;;;19.80;3.17;;;7.60;99.90;;;;;;4845882;29;20076;-64
2022/11/25 08:31:46;;;;;;;18.30;3.50;;;7.60;99.90;;;;;;4846301;29;20042;-64
2022/11/25 08:34:13;;;;;;;26.65;3.92;;;7.60;99.90;;;;;;4846373;29;20034;-63
2022/11/25 08:36:40;;;;;;;20.08;3.97;;;7.70;99.90;;;;;;4844467;29;20064;-64
2022/11/25 08:39:13;;;;;;;16.98;3.83;;;7.70;99.90;;;;;;4845700;29;20058;-64
2022/11/25 08:42:00;;;;;;;21.40;3.13;;;7.70;99.90;;;;;;4844605;29;20177;-64
2022/11/25 08:44:28;;;;;;;16.20;2.63;;;7.70;99.90;;;;;;4847821;29;20124;-64
2022/11/25 08:46:55;;;;;;;18.00;3.00;;;7.70;99.90;;;;;;4864491;29;20042;-64
2022/11/25 08:49:22;;;;;;;12.70;2.58;;;7.70;99.90;;;;;;4863520;29;20048;-64
2022/11/25 08:51:49;;;;;;;13.65;2.72;;;7.80;99.90;;;;;;4864581;29;20052;-63
2022/11/25 08:54:16;;;;;;;16.17;2.45;;;7.80;99.90;;;;;;4864069;29;20386;-64
2022/11/25 08:56:43;;;;;;;15.88;2.78;;;7.80;99.90;;;;;;4862176;29;20526;-64
2022/11/25 08:59:10;;;;;;;17.33;3.50;;;7.80;99.90;;;;;;4862565;29;20053;-64
2022/11/25 09:01:36;;;;;;;14.43;3.30;;;7.90;99.90;;;;;;4863621;29;20073;-64
2022/11/25 09:04:03;;;;;;;17.52;2.78;;;7.90;99.90;;;;;;4864131;29;20038;-63
2022/11/25 09:06:30;;;;;;;12.50;2.75;;;7.90;99.90;;;;;;4863476;29;20143;-62
2022/11/25 09:08:57;;;;;;;19.92;4.20;;;7.90;99.90;;;;;;4862836;29;20442;-63
2022/11/25 09:11:23;;;;;;;14.63;2.97;;;8.00;99.90;;;;;;4863818;29;20037;-63
2022/11/25 09:13:50;;;;;;;12.88;2.60;;;8.00;99.90;;;;;;4863646;29;20049;-62
2022/11/25 09:16:19;;;;;;;16.83;2.97;;;8.10;99.90;;;;;;4863839;29;20049;-63
2022/11/25 09:18:47;;;;;;;16.77;3.60;;;8.10;99.90;;;;;;4862680;29;20097;-62
2022/11/25 09:21:21;;;;;;;15.05;2.63;;;8.10;99.90;;;;;;4863706;29;20050;-63
2022/11/25 09:23:47;;;;;;;15.70;3.92;;;8.10;99.90;;;;;;4863958;29;20060;-63
2022/11/25 09:26:14;;;;;;;12.65;2.13;;;8.20;99.90;;;;;;4863325;29;20053;-63
2022/11/25 09:28:41;;;;;;;12.05;2.50;;;8.20;99.90;;;;;;4863318;29;20548;-63
2022/11/25 09:31:08;;;;;;;12.82;3.08;;;8.20;99.90;;;;;;4863462;29;20094;-63
2022/11/25 09:33:35;;;;;;;16.55;2.85;;;8.20;99.90;;;;;;4863498;29;20430;-62
2022/11/25 09:36:01;;;;;;;15.85;3.00;;;8.30;99.90;;;;;;4863026;29;20068;-62
2022/11/25 09:38:28;;;;;;;14.82;3.97;;;8.30;99.90;;;;;;4863085;29;20132;-62
2022/11/25 09:40:55;;;;;;;16.05;3.13;;;8.40;99.90;;;;;;4862118;29;20041;-62
2022/11/25 09:49:03;;;;;;;13.63;2.72;;;8.40;99.90;;;;;;4861763;29;20061;-63
2022/11/25 09:51:31;;;;;;;16.63;2.90;;;8.50;99.90;;;;;;4862057;29;20049;-63
2022/11/25 09:53:57;;;;;;;16.35;3.15;;;8.50;99.90;;;;;;4863429;29;20114;-63
2022/11/25 09:56:24;;;;;;;20.13;2.97;;;8.50;99.90;;;;;;4863326;29;20041;-63
2022/11/25 09:58:51;;;;;;;21.92;3.25;;;8.60;99.90;;;;;;4862396;29;20450;-62
2022/11/25 10:01:18;;;;;;;15.80;2.92;;;8.60;99.90;;;;;;4862832;29;20046;-63
2022/11/25 10:03:45;;;;;;;14.82;2.85;;;8.60;99.90;;;;;;4863208;29;20049;-63
2022/11/25 10:06:11;;;;;;;11.43;2.58;;;8.60;99.90;;;;;;4862491;29;20048;-63
2022/11/25 10:08:38;;;;;;;14.45;2.55;;;8.60;99.90;;;;;;4863151;29;20460;-63
2022/11/25 10:11:05;;;;;;;15.13;3.13;;;8.70;99.90;;;;;;4863029;29;20077;-63
2022/11/25 10:13:32;;;;;;;18.08;3.58;;;8.70;99.90;;;;;;4862393;29;20043;-63
2022/11/25 10:15:58;;;;;;;18.42;3.00;;;8.70;99.90;;;;;;4861648;29;20065;-63
2022/11/25 10:18:25;;;;;;;15.60;2.95;;;8.80;99.90;;;;;;4861118;29;20101;-63
2022/11/25 10:20:52;;;;;;;14.40;2.70;;;8.80;99.90;;;;;;4861846;29;20045;-63
2022/11/25 10:23:19;;;;;;;17.40;3.20;;;8.80;99.90;;;;;;4861814;29;20050;-63
2022/11/25 10:25:53;;;;;;;15.77;3.15;;;8.80;99.90;;;;;;4861066;29;20148;-63
2022/11/25 10:28:20;;;;;;;13.85;2.85;;;8.80;99.90;;;;;;4861284;29;20047;-63
2022/11/25 10:30:46;;;;;;;20.10;3.25;;;8.90;99.90;;;;;;4861176;29;20102;-63
2022/11/25 10:33:13;;;;;;;18.25;2.83;;;8.90;99.90;;;;;;4861090;29;20423;-63
2022/11/25 10:35:40;;;;;;;18.95;2.97;;;8.90;99.90;;;;;;4860970;29;20512;-63
2022/11/25 10:38:07;;;;;;;16.85;3.17;;;9.00;99.90;;;;;;4861062;29;20073;-63
2022/11/25 10:40:33;;;;;;;19.52;3.33;;;9.00;99.90;;;;;;4848295;29;20398;-63
2022/11/25 10:43:00;;;;;;;17.48;3.00;;;9.00;99.90;;;;;;4843905;29;20508;-63
2022/11/25 10:45:27;;;;;;;17.60;3.15;;;9.10;99.90;;;;;;4843903;29;20106;-63
2022/11/25 10:47:53;;;;;;;20.77;3.50;;;9.10;99.90;;;;;;4842724;29;20042;-63
2022/11/25 10:50:20;;;;;;;8.35;2.30;;;9.10;99.90;;;;;;4844177;29;20124;-63
2022/11/25 10:52:47;;;;;;;14.20;2.80;;;9.20;99.90;;;;;;4843884;29;20066;-64
2022/11/25 10:55:14;;;;;;;13.07;2.60;;;9.20;99.90;;;;;;4843491;29;20050;-63
2022/11/25 10:57:40;;;;;;;15.02;2.85;;;9.20;99.90;;;;;;4843370;29;20501;-63
2022/11/25 11:00:07;;;;;;;20.70;3.22;;;9.20;99.90;;;;;;4843813;29;20185;-63
2022/11/25 11:02:46;;;;;;;13.38;2.50;;;9.30;99.90;;;;;;4843436;29;20053;-63
2022/11/25 11:05:13;;;;;;;13.02;3.00;;;9.30;99.90;;;;;;4843541;29;20045;-63
2022/11/25 11:07:40;;;;;;;16.25;3.65;;;9.40;99.90;;;;;;4843469;29;20102;-63
2022/11/25 11:10:07;;;;;;;14.32;2.70;;;9.40;99.90;;;;;;4843638;29;20046;-63
2022/11/25 11:12:34;;;;;;;16.35;3.75;;;9.40;99.90;;;;;;4843643;29;20454;-64
2022/11/25 11:15:00;;;;;;;16.55;3.95;;;9.50;99.90;;;;;;4843430;29;20129;-64
2022/11/25 11:17:27;;;;;;;18.65;3.28;;;9.50;99.90;;;;;;4842407;29;20110;-61
2022/11/25 11:20:01;;;;;;;13.57;2.60;;;9.50;99.90;;;;;;4843232;29;20066;-62
2022/11/25 11:22:28;;;;;;;17.27;2.83;;;9.50;99.90;;;;;;4843249;29;20074;-62
2022/11/25 11:24:55;;;;;;;14.57;2.58;;;9.50;99.90;;;;;;4842614;29;20062;-61
2022/11/25 11:27:22;;;;;;;13.55;3.20;;;9.60;99.90;;;;;;4842903;29;20050;-62
2022/11/25 11:29:48;;;;;;;14.35;2.80;;;9.60;99.90;;;;;;4843292;29;20049;-62
2022/11/25 11:32:15;;;;;;;13.35;2.80;;;9.60;99.90;;;;;;4843141;29;20042;-62
2022/11/25 11:34:42;;;;;;;14.18;3.08;;;9.60;99.90;;;;;;4842840;29;20049;-62
2022/11/25 11:37:09;;;;;;;18.52;3.20;;;9.70;99.90;;;;;;4843470;29;20050;-62
2022/11/25 11:39:36;;;;;;;14.57;2.45;;;9.70;99.90;;;;;;4843507;29;20038;-62
2022/11/25 11:42:03;;;;;;;14.77;3.47;;;9.70;99.90;;;;;;4842601;29;20137;-62
2022/11/25 11:44:31;;;;;;;16.70;2.80;;;9.70;99.90;;;;;;4843208;29;20049;-62
2022/11/25 11:46:57;;;;;;;11.82;2.70;;;9.80;99.90;;;;;;4843111;29;20137;-62
2022/11/25 11:49:24;;;;;;;15.65;3.40;;;9.80;99.90;;;;;;4842895;29;20124;-63
2022/11/25 11:51:56;;;;;;;18.73;2.75;;;9.80;99.90;;;;;;4842996;29;20060;-63
2022/11/25 11:54:23;;;;;;;17.38;2.90;;;9.90;99.90;;;;;;4843174;29;20042;-63
2022/11/25 11:56:49;;;;;;;19.65;3.58;;;9.90;99.90;;;;;;4842599;29;20087;-62
2022/11/25 11:59:21;;;;;;;14.60;3.20;;;9.90;99.90;;;;;;4842673;29;20088;-62
2022/11/25 12:01:48;;;;;;;14.52;3.15;;;9.90;99.90;;;;;;4842860;29;20042;-62
2022/11/25 12:04:15;;;;;;;14.50;3.10;;;9.90;99.90;;;;;;4843078;29;20053;-62
2022/11/25 12:06:41;;;;;;;14.57;3.08;;;10.00;99.90;;;;;;4841409;29;20052;-62
2022/11/25 12:09:08;;;;;;;14.60;2.70;;;10.00;99.90;;;;;;4842800;29;20102;-62
2022/11/25 12:11:35;;;;;;;16.45;3.05;;;10.00;99.90;;;;;;4842632;29;20110;-62
2022/11/25 12:14:01;;;;;;;15.52;3.10;;;10.00;99.90;;;;;;4842706;29;20125;-63
2022/11/25 12:16:28;;;;;;;17.85;3.63;;;10.00;99.90;;;;;;4842430;29;20387;-62
2022/11/25 12:18:55;;;;;;;15.02;2.85;;;10.00;99.90;;;;;;4842679;29;20053;-62
2022/11/25 12:21:22;;;;;;;15.65;3.15;;;10.10;99.90;;;;;;4842627;29;20053;-62
2022/11/25 12:23:48;;;;;;;11.50;2.80;;;10.10;99.90;;;;;;4842939;29;20533;-62
2022/11/25 12:26:15;;;;;;;9.90;2.28;;;10.10;99.90;;;;;;4841972;29;20130;-62
2022/11/25 12:28:42;;;;;;;17.60;3.58;;;10.10;99.90;;;;;;4842542;29;20459;-62
2022/11/25 12:31:09;;;;;;;16.83;2.78;;;10.10;99.90;;;;;;4842807;29;20049;-62
2022/11/25 12:33:35;;;;;;;17.25;2.78;;;10.10;99.90;;;;;;4841447;29;20042;-62
2022/11/25 12:36:02;;;;;;;13.25;2.63;;;10.20;99.90;;;;;;4842324;29;20061;-62
2022/11/25 12:38:29;;;;;;;13.77;3.50;;;10.20;99.90;;;;;;4842922;29;20050;-62
2022/11/25 12:40:56;;;;;;;15.48;2.75;;;10.20;99.90;;;;;;4844831;29;20046;-63
2022/11/25 12:43:22;;;;;;;12.00;2.83;;;10.20;99.90;;;;;;4845962;29;20092;-63
2022/11/25 12:45:49;;;;;;;11.07;2.58;;;10.20;99.90;;;;;;4846165;29;20493;-63
2022/11/25 12:48:16;;;;;;;14.23;3.40;;;10.30;99.90;;;;;;4845673;29;20508;-63
2022/11/25 12:50:47;;;;;;;13.00;2.60;;;10.30;99.90;;;;;;4846241;29;20386;-63
2022/11/25 12:53:13;;;;;;;18.95;3.00;;;10.30;99.90;;;;;;4844295;29;20050;-63
2022/11/25 12:55:40;;;;;;;14.60;2.63;;;10.40;99.90;;;;;;4845738;29;20077;-63
2022/11/25 12:58:07;;;;;;;14.90;2.55;;;10.40;99.90;;;;;;4845502;29;20558;-63
2022/11/25 13:00:34;;;;;;;14.30;3.03;;;10.40;99.90;;;;;;4845955;29;20050;-63